createdAt,value
2019-01-03T00:01:24.867Z,6.37
2019-01-03T00:04:11.525Z,7.60
2019-01-03T00:07:14.454Z,7.03
2019-01-03T00:10:01.926Z,6.85
2019-01-03T00:13:08.856Z,7.47
2019-01-03T00:15:56.064Z,7.17
2019-01-03T00:18:43.660Z,7.45
2019-01-03T00:21:32.421Z,6.67
2019-01-03T00:24:33.360Z,7.22
2019-01-03T00:27:22.351Z,6.12
2019-01-03T00:30:15.391Z,6.50
2019-01-03T00:33:14.806Z,6.65
2019-01-03T00:36:06.045Z,4.90
2019-01-03T00:38:51.755Z,5.45
2019-01-03T00:41:45.983Z,5.05
2019-01-03T00:44:37.257Z,5.37
2019-01-03T00:47:29.020Z,5.90
2019-01-03T00:50:27.145Z,5.53
2019-01-03T00:53:20.911Z,4.97
2019-01-03T00:56:09.931Z,5.20
2019-01-03T00:58:52.607Z,5.22
2019-01-03T01:01:44.435Z,4.90
2019-01-03T01:04:31.883Z,5.58
2019-01-03T01:07:38.867Z,5.53
2019-01-03T01:10:30.602Z,5.00
2019-01-03T01:13:22.267Z,4.85
2019-01-03T01:16:20.650Z,5.25
2019-01-03T01:19:08.079Z,5.17
2019-01-03T01:22:05.306Z,6.12
2019-01-03T01:25:00.160Z,4.85
2019-01-03T01:27:48.870Z,5.50
2019-01-03T01:30:49.235Z,5.00
2019-01-03T01:33:38.921Z,5.67
2019-01-03T01:36:31.588Z,5.28
2019-01-03T01:39:25.390Z,5.58
2019-01-03T01:42:23.267Z,4.80
2019-01-03T01:45:09.857Z,4.50
2019-01-03T01:47:56.691Z,4.65
2019-01-03T01:50:40.907Z,4.80
2019-01-03T01:53:30.786Z,4.20
2019-01-03T01:56:28.335Z,5.00
2019-01-03T01:59:20.744Z,5.17
2019-01-03T02:02:07.823Z,4.65
2019-01-03T02:05:11.102Z,5.37
2019-01-03T02:07:59.547Z,4.17
2019-01-03T02:10:49.274Z,4.62
2019-01-03T02:13:36.368Z,4.90
2019-01-03T02:16:31.303Z,5.40
2019-01-03T02:19:17.652Z,5.12
2019-01-03T02:22:17.271Z,4.80
2019-01-03T02:25:05.970Z,5.15
2019-01-03T02:27:47.383Z,4.87
2019-01-03T02:30:34.814Z,4.75
2019-01-03T02:33:32.484Z,4.42
2019-01-03T02:36:33.126Z,4.60
2019-01-03T02:39:27.949Z,3.80
2019-01-03T02:42:16.703Z,4.67
2019-01-03T02:45:05.445Z,4.58
2019-01-03T02:48:03.254Z,3.95
2019-01-03T02:50:50.107Z,4.33
2019-01-03T02:53:37.238Z,3.92
2019-01-03T02:56:24.821Z,4.03
2019-01-03T02:59:11.813Z,4.05
2019-01-03T03:02:12.650Z,4.05
2019-01-03T03:04:56.634Z,4.28
2019-01-03T03:07:39.039Z,5.00
2019-01-03T03:10:31.005Z,5.67
2019-01-03T03:13:26.237Z,5.42
2019-01-03T03:16:13.483Z,5.37
2019-01-03T03:19:02.201Z,5.10
2019-01-03T03:21:53.959Z,4.58
2019-01-03T03:24:36.499Z,4.97
2019-01-03T03:27:11.647Z,4.08
2019-01-03T03:30:15.782Z,4.42
2019-01-03T03:33:02.870Z,3.80
2019-01-03T03:35:49.906Z,5.17
2019-01-03T03:38:38.375Z,5.70
2019-01-03T03:41:22.381Z,5.00
2019-01-03T03:44:20.441Z,5.53
2019-01-03T03:47:21.660Z,5.15
2019-01-03T03:50:28.625Z,5.28
2019-01-03T03:53:35.290Z,5.87
2019-01-03T03:56:32.070Z,5.17
2019-01-03T03:59:39.050Z,5.65
2019-01-03T04:02:42.501Z,5.22
2019-01-03T04:05:36.860Z,5.55
2019-01-03T04:08:25.615Z,6.20
2019-01-03T04:11:17.464Z,5.97
2019-01-03T04:14:04.674Z,5.67
2019-01-03T04:16:52.451Z,6.97
2019-01-03T04:19:48.327Z,6.12
2019-01-03T04:22:39.372Z,5.60
2019-01-03T04:25:31.623Z,5.60
2019-01-03T04:28:18.228Z,6.35
2019-01-03T04:31:05.656Z,5.95
2019-01-03T04:34:00.709Z,6.25
2019-01-03T04:37:06.990Z,6.55
2019-01-03T04:40:07.594Z,5.33
2019-01-03T04:43:02.059Z,6.20
2019-01-03T04:45:49.258Z,6.05
2019-01-03T04:48:56.356Z,5.80
2019-01-03T04:52:02.804Z,5.90
2019-01-03T04:54:51.509Z,5.90
2019-01-03T04:57:39.152Z,6.78
2019-01-03T05:00:26.447Z,6.10
2019-01-03T05:03:13.916Z,6.78
2019-01-03T05:05:57.892Z,6.33
2019-01-03T05:08:55.658Z,6.00
2019-01-03T05:11:43.073Z,5.30
2019-01-03T05:14:38.408Z,6.65
2019-01-03T05:17:25.139Z,5.97
2019-01-03T05:20:17.525Z,6.33
2019-01-03T05:23:15.379Z,6.75
2019-01-03T05:26:07.836Z,6.00
2019-01-03T05:28:56.861Z,6.20
2019-01-03T05:32:03.622Z,7.17
2019-01-03T05:34:51.050Z,7.03
2019-01-03T05:37:38.237Z,6.30
2019-01-03T05:40:35.633Z,6.30
2019-01-03T05:43:23.025Z,5.75
2019-01-03T05:46:19.719Z,6.47
2019-01-03T05:49:23.637Z,6.70
2019-01-03T05:52:21.729Z,7.70
2019-01-03T05:55:08.917Z,7.17
2019-01-03T05:58:03.233Z,7.05
2019-01-03T06:00:50.306Z,7.95
2019-01-03T06:03:37.275Z,8.90
2019-01-03T06:06:32.285Z,7.45
2019-01-03T06:09:23.865Z,7.40
2019-01-03T06:12:28.017Z,9.18
2019-01-03T06:15:16.832Z,9.38
2019-01-03T06:18:06.117Z,8.93
2019-01-03T06:21:10.398Z,9.05
2019-01-03T06:23:55.027Z,9.70
2019-01-03T06:26:55.950Z,9.73
2019-01-03T06:29:50.132Z,9.25
2019-01-03T06:32:41.624Z,9.85
2019-01-03T06:35:30.379Z,9.50
2019-01-03T06:38:34.290Z,9.45
2019-01-03T06:41:21.401Z,10.15
2019-01-03T06:44:19.583Z,8.83
2019-01-03T06:47:06.257Z,9.95
2019-01-03T06:49:47.703Z,9.20
2019-01-03T06:52:35.029Z,11.12
2019-01-03T06:55:28.421Z,10.93
2019-01-03T06:58:26.208Z,11.60
2019-01-03T07:01:29.571Z,8.35
2019-01-03T07:04:28.595Z,9.03
2019-01-03T07:07:20.335Z,6.60
2019-01-03T07:10:07.720Z,8.50
2019-01-03T07:13:02.563Z,7.72
2019-01-03T07:16:06.487Z,6.90
2019-01-03T07:18:55.255Z,6.80
2019-01-03T07:21:42.587Z,8.08
2019-01-03T07:24:29.941Z,8.25
2019-01-03T07:27:36.832Z,7.12
2019-01-03T07:30:34.676Z,8.85
2019-01-03T07:33:21.554Z,8.50
2019-01-03T07:36:08.852Z,7.60
2019-01-03T07:39:00.155Z,7.35
2019-01-03T07:41:48.853Z,6.97
2019-01-03T07:44:55.539Z,6.85
2019-01-03T07:47:49.805Z,6.87
2019-01-03T07:50:31.911Z,7.87
2019-01-03T07:53:18.987Z,7.03
2019-01-03T07:56:22.874Z,7.45
2019-01-03T07:59:10.044Z,8.18
2019-01-03T08:02:01.889Z,8.18
2019-01-03T08:05:09.131Z,7.60
2019-01-03T08:07:55.875Z,7.58
2019-01-03T08:10:42.627Z,8.10
2019-01-03T08:13:31.375Z,6.62
2019-01-03T08:16:20.142Z,6.72
2019-01-03T08:19:24.324Z,12.05
2019-01-03T08:22:11.657Z,16.25
2019-01-03T08:24:56.818Z,11.68
2019-01-03T08:27:45.539Z,11.20
2019-01-03T08:30:32.865Z,8.80
2019-01-03T08:33:29.371Z,11.30
2019-01-03T08:36:18.175Z,8.78
2019-01-03T08:39:09.492Z,12.07
2019-01-03T08:42:04.403Z,8.30
2019-01-03T08:44:47.799Z,10.35
2019-01-03T08:47:38.987Z,10.65
2019-01-03T08:50:26.376Z,12.30
2019-01-03T08:53:33.345Z,16.32
2019-01-03T08:56:20.568Z,10.82
2019-01-03T08:59:15.251Z,10.95
2019-01-03T09:02:02.739Z,8.40
2019-01-03T09:04:49.483Z,7.90
2019-01-03T09:07:36.879Z,11.38
2019-01-03T09:10:28.256Z,7.10
2019-01-03T09:13:35.171Z,6.55
2019-01-03T09:16:17.854Z,10.25
2019-01-03T09:19:14.995Z,7.33
2019-01-03T09:21:58.058Z,7.87
2019-01-03T09:24:55.676Z,7.30
2019-01-03T09:27:44.735Z,7.20
2019-01-03T09:30:31.914Z,10.48
2019-01-03T09:33:26.142Z,9.03
2019-01-03T09:36:07.307Z,8.70
2019-01-03T09:39:10.728Z,11.68
2019-01-03T09:41:58.144Z,8.48
2019-01-03T09:44:46.058Z,10.90
2019-01-03T09:47:15.603Z,13.85
2019-01-03T09:49:45.371Z,13.60
2019-01-03T09:52:15.077Z,12.20
2019-01-03T09:54:44.783Z,15.65
2019-01-03T09:57:15.083Z,12.10
2019-01-03T09:59:45.088Z,18.40
2019-01-03T10:02:15.431Z,10.00
2019-01-03T10:04:45.731Z,13.08
2019-01-03T10:07:16.012Z,13.35
2019-01-03T10:09:46.013Z,16.65
2019-01-03T10:12:15.760Z,13.35
2019-01-03T10:14:45.743Z,21.97
2019-01-03T10:17:15.889Z,12.18
2019-01-03T10:19:45.903Z,10.85
2019-01-03T10:22:15.614Z,11.95
2019-01-03T10:24:45.317Z,11.35
2019-01-03T10:27:15.584Z,13.15
2019-01-03T10:29:45.872Z,20.30
2019-01-03T10:32:16.191Z,14.73
2019-01-03T10:34:45.977Z,17.52
2019-01-03T10:37:15.970Z,11.83
2019-01-03T10:39:45.976Z,10.35
2019-01-03T10:42:17.464Z,11.55
2019-01-03T10:44:47.335Z,11.30
2019-01-03T10:47:17.396Z,11.08
2019-01-03T10:49:46.724Z,11.83
2019-01-03T10:52:16.409Z,11.83
2019-01-03T10:54:46.194Z,13.30
2019-01-03T10:57:15.900Z,11.38
2019-01-03T10:59:45.665Z,10.13
2019-01-03T11:02:15.357Z,9.55
2019-01-03T11:04:44.776Z,9.85
2019-01-03T11:07:14.601Z,9.90
2019-01-03T11:09:44.299Z,11.05
2019-01-03T11:12:13.996Z,10.20
2019-01-03T11:14:43.739Z,10.53
2019-01-03T11:17:13.839Z,9.80
2019-01-03T11:19:43.272Z,11.88
2019-01-03T11:22:13.271Z,9.65
2019-01-03T11:24:42.658Z,10.15
2019-01-03T11:27:12.989Z,10.20
2019-01-03T11:29:43.028Z,10.85
2019-01-03T11:32:13.314Z,10.85
2019-01-03T11:34:43.366Z,19.90
2019-01-03T11:37:13.092Z,15.45
2019-01-03T11:39:43.157Z,12.85
2019-01-03T11:42:13.164Z,12.10
2019-01-03T11:44:44.014Z,12.43
2019-01-03T11:47:13.984Z,11.90
2019-01-03T11:49:44.130Z,11.97
2019-01-03T11:52:14.146Z,11.12
2019-01-03T11:54:43.877Z,11.88
2019-01-03T11:57:14.280Z,10.75
2019-01-03T11:59:43.811Z,16.30
2019-01-03T12:02:13.554Z,24.27
2019-01-03T12:04:43.084Z,11.78
2019-01-03T12:07:12.811Z,11.40
2019-01-03T12:09:42.872Z,13.50
2019-01-03T12:12:12.550Z,11.33
2019-01-03T12:14:41.922Z,12.30
2019-01-03T12:17:11.984Z,15.75
2019-01-03T12:19:42.040Z,13.70
2019-01-03T12:22:12.435Z,11.83
2019-01-03T12:24:42.554Z,12.13
2019-01-03T12:27:12.980Z,16.97
2019-01-03T12:29:43.333Z,12.98
2019-01-03T12:32:12.458Z,12.82
2019-01-03T12:34:42.230Z,15.38
2019-01-03T12:37:11.929Z,23.18
2019-01-03T12:39:41.896Z,19.50
2019-01-03T12:42:11.914Z,16.65
2019-01-03T12:44:41.900Z,13.80
2019-01-03T12:47:11.623Z,15.03
2019-01-03T12:49:41.038Z,25.43
2019-01-03T12:52:11.046Z,48.55
2019-01-03T12:54:41.059Z,25.17
2019-01-03T12:57:11.150Z,45.23
2019-01-03T12:59:40.587Z,83.50
2019-01-03T13:02:10.370Z,33.10
2019-01-03T13:04:43.440Z,31.75
2019-01-03T13:07:21.706Z,22.75
2019-01-03T13:09:52.095Z,24.50
2019-01-03T13:12:21.858Z,23.55
2019-01-03T13:14:52.192Z,17.35
2019-01-03T13:17:22.304Z,24.52
2019-01-03T13:19:52.627Z,17.52
2019-01-03T13:22:22.430Z,21.07
2019-01-03T13:24:52.117Z,24.75
2019-01-03T13:27:22.486Z,17.50
2019-01-03T13:29:52.480Z,27.95
2019-01-03T13:32:22.228Z,27.60
2019-01-03T13:34:52.556Z,27.32
2019-01-03T13:37:22.604Z,19.20
2019-01-03T13:39:53.092Z,15.30
2019-01-03T13:42:23.095Z,13.28
2019-01-03T13:44:53.407Z,14.87
2019-01-03T13:47:23.718Z,18.40
2019-01-03T13:49:54.106Z,15.35
2019-01-03T13:52:24.601Z,27.37
2019-01-03T13:54:54.622Z,26.87
2019-01-03T13:57:24.703Z,17.85
2019-01-03T13:59:54.480Z,24.25
2019-01-03T14:02:24.268Z,26.37
2019-01-03T14:04:54.285Z,27.10
2019-01-03T14:07:24.075Z,27.60
2019-01-03T14:09:54.359Z,25.57
2019-01-03T14:12:24.425Z,14.53
2019-01-03T14:14:53.603Z,25.90
2019-01-03T14:17:23.573Z,16.37
2019-01-03T14:19:53.839Z,15.38
2019-01-03T14:22:23.590Z,14.78
2019-01-03T14:24:53.724Z,13.38
2019-01-03T14:27:23.407Z,16.60
2019-01-03T14:29:53.416Z,16.48
2019-01-03T14:32:23.699Z,15.03
2019-01-03T14:34:53.672Z,23.60
2019-01-03T14:37:23.979Z,24.77
2019-01-03T14:39:54.281Z,31.27
2019-01-03T14:42:23.449Z,18.60
2019-01-03T14:44:53.164Z,38.55
2019-01-03T14:47:22.901Z,20.50
2019-01-03T14:49:52.686Z,15.43
2019-01-03T14:52:22.804Z,16.45
2019-01-03T14:54:52.895Z,14.50
2019-01-03T14:57:22.680Z,20.17
2019-01-03T14:59:52.208Z,15.20
2019-01-03T15:02:21.991Z,14.07
2019-01-03T15:04:52.006Z,33.28
2019-01-03T15:07:22.084Z,28.60
2019-01-03T15:09:52.069Z,15.60
2019-01-03T15:12:22.044Z,14.93
2019-01-03T15:14:51.435Z,15.55
2019-01-03T15:17:21.120Z,14.45
2019-01-03T15:19:51.532Z,15.68
2019-01-03T15:22:22.199Z,13.00
2019-01-03T15:24:52.277Z,15.00
2019-01-03T15:27:22.470Z,14.55
2019-01-03T15:29:52.495Z,15.00
2019-01-03T15:32:22.268Z,13.45
2019-01-03T15:34:52.379Z,14.98
2019-01-03T15:37:22.487Z,15.32
2019-01-03T15:39:52.594Z,14.43
2019-01-03T15:42:22.412Z,16.12
2019-01-03T15:44:52.521Z,14.03
2019-01-03T15:47:22.782Z,15.15
2019-01-03T15:49:52.750Z,13.60
2019-01-03T15:52:22.765Z,14.35
2019-01-03T15:54:52.539Z,14.73
2019-01-03T15:57:22.934Z,12.07
2019-01-03T15:59:52.463Z,15.32
2019-01-03T16:02:22.379Z,13.15
2019-01-03T16:04:52.297Z,13.20
2019-01-03T16:07:22.530Z,12.20
2019-01-03T16:09:52.677Z,14.07
2019-01-03T16:12:22.175Z,13.72
2019-01-03T16:14:52.147Z,14.95
2019-01-03T16:17:22.163Z,13.22
2019-01-03T16:19:52.145Z,21.02
2019-01-03T16:22:22.454Z,15.95
2019-01-03T16:24:52.804Z,41.00
2019-01-03T16:27:23.168Z,25.72
2019-01-03T16:29:53.218Z,26.60
2019-01-03T16:32:23.334Z,12.43
2019-01-03T16:34:53.114Z,24.50
2019-01-03T16:37:23.193Z,12.70
2019-01-03T16:39:52.980Z,12.45
2019-01-03T16:42:22.758Z,12.15
2019-01-03T16:44:52.873Z,13.00
2019-01-03T16:47:22.916Z,15.10
2019-01-03T16:49:53.033Z,15.13
2019-01-03T16:52:23.124Z,14.65
2019-01-03T16:54:52.544Z,13.45
2019-01-03T16:57:22.390Z,13.98
2019-01-03T16:59:52.597Z,13.45
2019-01-03T17:02:22.667Z,12.95
2019-01-03T17:04:52.815Z,13.13
2019-01-03T17:07:22.915Z,12.55
2019-01-03T17:09:53.368Z,12.53
2019-01-03T17:12:23.837Z,13.00
2019-01-03T17:14:53.892Z,12.98
2019-01-03T17:17:23.964Z,12.90
2019-01-03T17:19:53.428Z,12.73
2019-01-03T17:22:23.467Z,13.03
2019-01-03T17:24:53.808Z,13.13
2019-01-03T17:27:23.881Z,12.60
2019-01-03T17:29:53.885Z,11.90
2019-01-03T17:32:23.909Z,13.75
2019-01-03T17:34:53.984Z,12.15
2019-01-03T17:37:24.316Z,40.65
2019-01-03T17:39:54.684Z,20.70
2019-01-03T17:42:24.735Z,14.80
2019-01-03T17:44:54.495Z,101.55
2019-01-03T17:47:24.983Z,26.80
2019-01-03T17:49:55.121Z,26.37
2019-01-03T17:52:25.592Z,13.75
2019-01-03T17:54:55.766Z,13.78
2019-01-03T17:57:25.566Z,15.00
2019-01-03T17:59:56.093Z,13.48
2019-01-03T18:02:25.958Z,12.65
2019-01-03T18:04:55.930Z,13.22
2019-01-03T18:07:26.090Z,13.40
2019-01-03T18:09:56.542Z,16.17
2019-01-03T18:12:26.852Z,16.02
2019-01-03T18:14:57.392Z,14.60
2019-01-03T18:17:27.451Z,15.05
2019-01-03T18:19:57.034Z,13.22
2019-01-03T18:22:27.248Z,12.90
2019-01-03T18:24:57.572Z,14.38
2019-01-03T18:27:27.419Z,14.30
2019-01-03T18:29:57.856Z,13.65
2019-01-03T18:32:27.246Z,14.93
2019-01-03T18:34:56.731Z,13.10
2019-01-03T18:37:27.141Z,13.38
2019-01-03T18:39:57.297Z,14.30
2019-01-03T18:42:27.673Z,13.78
2019-01-03T18:44:57.856Z,13.68
2019-01-03T18:47:28.253Z,12.45
2019-01-03T18:49:58.923Z,13.20
2019-01-03T18:52:28.991Z,14.25
2019-01-03T18:54:59.113Z,12.70
2019-01-03T18:57:28.803Z,12.75
2019-01-03T18:59:58.619Z,14.25
2019-01-03T19:02:28.748Z,14.55
2019-01-03T19:04:58.822Z,15.68
2019-01-03T19:07:28.741Z,14.25
2019-01-03T19:09:59.044Z,14.70
2019-01-03T19:12:28.704Z,15.30
2019-01-03T19:14:58.554Z,15.53
2019-01-03T19:17:29.100Z,15.58
2019-01-03T19:19:59.646Z,14.60
2019-01-03T19:22:29.962Z,15.25
2019-01-03T19:25:00.727Z,15.32
2019-01-03T19:27:30.972Z,14.78
2019-01-03T19:30:01.330Z,13.93
2019-01-03T19:32:31.248Z,14.15
2019-01-03T19:35:01.097Z,14.05
2019-01-03T19:37:30.754Z,14.10
2019-01-03T19:40:01.375Z,13.95
2019-01-03T19:42:31.494Z,13.93
2019-01-03T19:45:01.706Z,18.05
2019-01-03T19:47:31.864Z,18.75
2019-01-03T19:50:02.106Z,14.70
2019-01-03T19:52:31.971Z,15.00
2019-01-03T19:55:02.006Z,14.65
2019-01-03T19:57:32.346Z,16.77
2019-01-03T20:00:02.579Z,14.30
2019-01-03T20:02:32.844Z,14.65
2019-01-03T20:05:02.449Z,15.25
2019-01-03T20:07:32.215Z,14.60
2019-01-03T20:10:02.108Z,15.40
2019-01-03T20:12:32.748Z,21.33
2019-01-03T20:15:03.167Z,14.78
2019-01-03T20:17:33.493Z,15.38
2019-01-03T20:20:03.350Z,14.58
2019-01-03T20:22:33.691Z,15.80
2019-01-03T20:25:03.478Z,14.68
2019-01-03T20:27:33.981Z,15.68
2019-01-03T20:30:04.623Z,15.93
2019-01-03T20:32:34.631Z,16.02
2019-01-03T20:35:04.356Z,15.10
2019-01-03T20:37:35.106Z,14.90
2019-01-03T20:40:05.734Z,14.60
2019-01-03T20:42:36.342Z,15.08
2019-01-03T20:45:07.183Z,16.73
2019-01-03T20:47:37.368Z,15.85
2019-01-03T20:50:08.317Z,17.30
2019-01-03T20:52:38.657Z,16.80
2019-01-03T20:55:09.475Z,18.80
2019-01-03T20:57:39.937Z,17.45
2019-01-03T21:00:12.791Z,21.10
2019-01-03T21:02:42.832Z,19.07
2019-01-03T21:05:12.907Z,22.37
2019-01-03T21:07:42.408Z,19.80
2019-01-03T21:10:13.784Z,16.80
2019-01-03T21:12:44.020Z,31.77
2019-01-03T21:15:18.283Z,21.48
2019-01-03T21:17:48.487Z,43.73
2019-01-03T21:20:19.077Z,29.75
2019-01-03T21:22:49.524Z,23.15
2019-01-03T21:25:19.524Z,19.23
2019-01-03T21:27:49.372Z,17.40
2019-01-03T21:30:20.392Z,17.07
2019-01-03T21:32:50.476Z,15.90
2019-01-03T21:35:20.548Z,17.02
2019-01-03T21:37:50.604Z,16.70
2019-01-03T21:40:20.719Z,17.57
2019-01-03T21:42:50.371Z,17.25
2019-01-03T21:45:20.142Z,16.05
2019-01-03T21:47:50.278Z,17.70
2019-01-03T21:50:20.047Z,16.45
2019-01-03T21:52:50.068Z,17.32
2019-01-03T21:55:20.037Z,17.85
2019-01-03T21:57:50.109Z,19.20
2019-01-03T22:00:20.531Z,17.92
2019-01-03T22:02:50.856Z,16.70
2019-01-03T22:05:20.635Z,17.17
2019-01-03T22:07:50.554Z,16.50
2019-01-03T22:10:20.291Z,55.88
2019-01-03T22:12:50.410Z,18.15
2019-01-03T22:15:20.191Z,26.82
2019-01-03T22:17:50.263Z,17.37
2019-01-03T22:20:20.318Z,16.40
2019-01-03T22:22:49.860Z,18.00
2019-01-03T22:25:19.891Z,18.00
2019-01-03T22:27:49.928Z,17.48
2019-01-03T22:30:19.738Z,17.85
2019-01-03T22:32:50.097Z,17.37
2019-01-03T22:35:20.136Z,17.90
2019-01-03T22:37:49.875Z,16.82
2019-01-03T22:40:19.952Z,18.50
2019-01-03T22:42:50.332Z,16.60
2019-01-03T22:45:20.039Z,17.42
2019-01-03T22:47:50.364Z,18.05
2019-01-03T22:50:20.484Z,18.62
2019-01-03T22:52:50.214Z,17.95
2019-01-03T22:55:19.911Z,19.60
2019-01-03T22:57:49.636Z,17.32
2019-01-03T23:00:43.086Z,18.23
2019-01-03T23:03:12.801Z,19.65
2019-01-03T23:05:42.867Z,19.98
2019-01-03T23:08:12.968Z,24.57
2019-01-03T23:10:42.400Z,19.75
2019-01-03T23:13:12.412Z,20.55
2019-01-03T23:15:42.459Z,17.30
2019-01-03T23:18:12.932Z,17.75
2019-01-03T23:20:43.054Z,17.95
2019-01-03T23:23:13.192Z,17.40
2019-01-03T23:25:43.650Z,17.98
2019-01-03T23:28:14.007Z,17.73
2019-01-03T23:30:44.041Z,18.05
2019-01-03T23:33:14.023Z,17.45
2019-01-03T23:35:44.033Z,17.80
2019-01-03T23:38:13.697Z,17.90
2019-01-03T23:40:43.105Z,17.07
2019-01-03T23:43:12.630Z,17.42
2019-01-03T23:45:42.164Z,18.82
2019-01-03T23:48:11.656Z,18.30
2019-01-03T23:50:41.639Z,18.65
2019-01-03T23:53:11.689Z,18.32
2019-01-03T23:55:44.635Z,17.90
2019-01-03T23:58:14.731Z,18.75
